createdAt,value
2018-04-16T00:00:46.336Z,27.70
2018-04-16T00:01:46.301Z,28.30
2018-04-16T00:02:46.290Z,29.00
2018-04-16T00:03:46.292Z,28.60
2018-04-16T00:04:46.278Z,29.40
2018-04-16T00:05:46.283Z,29.70
2018-04-16T00:06:46.290Z,30.30
2018-04-16T00:07:46.329Z,29.60
2018-04-16T00:08:46.306Z,29.90
2018-04-16T00:09:46.293Z,30.10
2018-04-16T00:10:46.298Z,28.70
2018-04-16T00:11:46.301Z,30.30
2018-04-16T00:12:46.316Z,30.90
2018-04-16T00:13:46.326Z,29.60
2018-04-16T00:14:46.298Z,29.10
2018-04-16T00:15:46.303Z,29.50
2018-04-16T00:16:46.325Z,29.60
2018-04-16T00:17:46.313Z,28.50
2018-04-16T00:18:46.318Z,30.60
2018-04-16T00:19:46.306Z,29.60
2018-04-16T00:20:46.317Z,29.20
2018-04-16T00:21:46.302Z,30.00
2018-04-16T00:22:46.311Z,30.70
2018-04-16T00:23:46.323Z,32.00
2018-04-16T00:24:46.317Z,29.50
2018-04-16T00:25:47.078Z,29.60
2018-04-16T00:26:48.149Z,29.70
2018-04-16T00:27:46.356Z,28.90
2018-04-16T00:28:46.340Z,30.50
2018-04-16T00:29:46.352Z,28.70
2018-04-16T00:30:46.336Z,29.20
2018-04-16T00:31:46.346Z,28.70
2018-04-16T00:32:46.363Z,30.10
2018-04-16T00:33:46.361Z,28.90
2018-04-16T00:34:46.370Z,29.30
2018-04-16T00:35:48.137Z,29.30
2018-04-16T00:36:46.389Z,29.20
2018-04-16T00:37:46.354Z,30.00
2018-04-16T00:38:46.403Z,30.80
2018-04-16T00:39:46.359Z,32.10
2018-04-16T00:40:46.375Z,30.60
2018-04-16T00:41:46.378Z,30.60
2018-04-16T00:42:46.374Z,31.00
2018-04-16T00:43:46.369Z,30.80
2018-04-16T00:44:46.375Z,32.90
2018-04-16T00:45:46.391Z,32.10
2018-04-16T00:46:46.390Z,33.10
2018-04-16T00:47:46.378Z,33.30
2018-04-16T00:48:46.388Z,34.10
2018-04-16T00:49:46.374Z,35.20
2018-04-16T00:50:46.387Z,35.40
2018-04-16T00:51:46.398Z,34.00
2018-04-16T00:52:46.394Z,34.00
2018-04-16T00:53:46.393Z,34.50
2018-04-16T00:54:48.160Z,34.90
2018-04-16T00:55:46.428Z,36.20
2018-04-16T00:56:46.433Z,35.90
2018-04-16T00:57:46.472Z,35.00
2018-04-16T00:58:46.412Z,36.10
2018-04-16T00:59:46.400Z,37.90
2018-04-16T01:00:46.458Z,37.70
2018-04-16T01:01:47.086Z,35.40
2018-04-16T01:02:46.410Z,35.60
2018-04-16T01:03:46.427Z,36.60
2018-04-16T01:04:46.432Z,37.40
2018-04-16T01:05:46.506Z,37.40
2018-04-16T01:06:47.088Z,38.80
2018-04-16T01:07:46.429Z,39.10
2018-04-16T01:08:46.437Z,39.70
2018-04-16T01:09:46.433Z,39.10
2018-04-16T01:10:46.445Z,39.30
2018-04-16T01:11:46.427Z,40.60
2018-04-16T01:12:46.450Z,38.40
2018-04-16T01:13:46.463Z,39.90
2018-04-16T01:14:48.155Z,37.90
2018-04-16T01:15:46.451Z,36.10
2018-04-16T01:16:46.445Z,36.20
2018-04-16T01:17:46.455Z,36.60
2018-04-16T01:18:46.449Z,37.40
2018-04-16T01:19:46.545Z,36.00
2018-04-16T01:20:46.465Z,35.80
2018-04-16T01:21:46.488Z,38.40
2018-04-16T01:22:46.471Z,37.40
2018-04-16T01:23:46.500Z,38.90
2018-04-16T01:24:46.463Z,37.50
2018-04-16T01:25:46.480Z,37.90
2018-04-16T01:26:46.459Z,39.00
2018-04-16T01:27:46.499Z,38.00
2018-04-16T01:28:46.521Z,38.90
2018-04-16T01:29:46.477Z,37.90
2018-04-16T01:30:46.479Z,37.10
2018-04-16T01:31:46.516Z,38.00
2018-04-16T01:32:46.486Z,37.10
2018-04-16T01:33:46.496Z,36.50
2018-04-16T01:34:46.505Z,34.80
2018-04-16T01:35:46.508Z,36.90
2018-04-16T01:36:46.500Z,37.10
2018-04-16T01:37:46.519Z,37.40
2018-04-16T01:38:46.518Z,36.80
2018-04-16T01:39:48.166Z,36.40
2018-04-16T01:40:46.503Z,35.90
2018-04-16T01:41:46.515Z,36.80
2018-04-16T01:42:46.528Z,34.40
2018-04-16T01:43:46.536Z,36.00
2018-04-16T01:44:46.536Z,35.80
2018-04-16T01:45:46.532Z,35.50
2018-04-16T01:46:46.526Z,36.60
2018-04-16T01:47:46.536Z,37.60
2018-04-16T01:48:46.515Z,37.90
2018-04-16T01:49:46.538Z,37.50
2018-04-16T01:50:46.546Z,36.70
2018-04-16T01:51:46.535Z,37.60
2018-04-16T01:52:46.549Z,35.90
2018-04-16T01:53:46.576Z,36.60
2018-04-16T01:54:46.554Z,36.80
2018-04-16T01:55:46.572Z,36.80
2018-04-16T01:56:46.557Z,38.50
2018-04-16T01:57:46.559Z,36.60
2018-04-16T01:58:46.561Z,36.50
2018-04-16T01:59:46.551Z,35.60
2018-04-16T02:00:46.603Z,35.20
2018-04-16T02:01:46.548Z,36.80
2018-04-16T02:02:46.587Z,36.10
2018-04-16T02:03:46.597Z,36.50
2018-04-16T02:04:46.557Z,35.10
2018-04-16T02:05:50.104Z,36.80
2018-04-16T02:06:48.177Z,37.00
2018-04-16T02:07:46.569Z,37.60
2018-04-16T02:08:46.560Z,37.50
2018-04-16T02:09:46.579Z,37.70
2018-04-16T02:10:46.599Z,37.00
2018-04-16T02:11:46.572Z,38.20
2018-04-16T02:12:46.584Z,38.60
2018-04-16T02:13:46.586Z,40.30
2018-04-16T02:14:46.598Z,38.20
2018-04-16T02:15:46.605Z,38.80
2018-04-16T02:16:46.595Z,37.70
2018-04-16T02:17:46.606Z,37.90
2018-04-16T02:18:46.583Z,38.00
2018-04-16T02:19:46.608Z,38.00
2018-04-16T02:20:46.590Z,38.10
2018-04-16T02:21:46.598Z,37.20
2018-04-16T02:22:46.603Z,39.10
2018-04-16T02:23:46.595Z,40.90
2018-04-16T02:24:46.606Z,42.00
2018-04-16T02:25:46.602Z,41.70
2018-04-16T02:26:46.629Z,38.90
2018-04-16T02:27:46.612Z,38.60
2018-04-16T02:28:46.614Z,39.60
2018-04-16T02:29:46.636Z,38.90
2018-04-16T02:30:46.616Z,41.00
2018-04-16T02:31:46.622Z,40.60
2018-04-16T02:32:46.614Z,40.90
2018-04-16T02:33:46.626Z,41.50
2018-04-16T02:34:46.629Z,40.10
2018-04-16T02:35:46.646Z,39.20
2018-04-16T02:36:46.646Z,37.60
2018-04-16T02:37:46.640Z,38.90
2018-04-16T02:38:49.181Z,38.40
2018-04-16T02:39:46.787Z,40.00
2018-04-16T02:45:20.559Z,37.60
2018-04-16T02:46:22.371Z,37.50
2018-04-16T02:47:23.375Z,37.60
2018-04-16T02:50:25.596Z,37.80
2018-04-16T02:51:21.291Z,38.70
2018-04-16T02:52:21.989Z,38.50
2018-04-16T02:53:22.643Z,37.40
2018-04-16T02:54:22.531Z,37.80
2018-04-16T02:55:23.976Z,38.70
2018-04-16T02:56:23.638Z,39.00
2018-04-16T02:57:23.703Z,38.50
2018-04-16T02:58:22.549Z,37.40
2018-04-16T02:59:23.252Z,39.80
2018-04-16T03:00:23.014Z,38.70
2018-04-16T03:01:20.342Z,37.90
2018-04-16T03:02:26.594Z,37.20
2018-04-16T03:03:21.596Z,38.30
2018-04-16T03:04:22.506Z,38.60
2018-04-16T03:05:21.978Z,38.20
2018-04-16T03:06:20.961Z,38.60
2018-04-16T03:07:24.297Z,38.90
2018-04-16T03:08:23.109Z,42.20
2018-04-16T03:09:22.263Z,42.70
2018-04-16T03:10:22.343Z,41.30
2018-04-16T03:11:20.916Z,42.40
2018-04-16T03:12:21.858Z,40.30
2018-04-16T03:13:21.261Z,38.70
2018-04-16T03:14:23.409Z,41.80
2018-04-16T03:15:22.754Z,42.70
2018-04-16T03:16:23.236Z,42.10
2018-04-16T03:17:19.586Z,41.80
2018-04-16T03:18:20.284Z,40.70
2018-04-16T03:19:21.091Z,40.80
2018-04-16T03:20:22.898Z,40.50
2018-04-16T03:21:20.565Z,41.70
2018-04-16T03:22:21.506Z,41.80
2018-04-16T03:23:26.105Z,43.10
2018-04-16T03:24:23.678Z,41.60
2018-04-16T03:25:23.001Z,41.40
2018-04-16T03:26:22.631Z,42.90
2018-04-16T03:27:22.201Z,43.40
2018-04-16T03:28:20.101Z,45.50
2018-04-16T03:29:19.456Z,43.20
2018-04-16T03:30:19.719Z,44.00
2018-04-16T03:31:20.506Z,42.70
2018-04-16T03:32:20.023Z,43.60
2018-04-16T03:33:22.175Z,43.90
2018-04-16T03:34:23.540Z,42.60
2018-04-16T03:35:23.982Z,45.00
2018-04-16T03:36:24.842Z,44.80
2018-04-16T03:37:21.551Z,42.80
2018-04-16T03:38:22.393Z,44.40
2018-04-16T03:39:20.845Z,43.00
2018-04-16T03:40:21.978Z,41.70
2018-04-16T03:41:22.226Z,41.20
2018-04-16T03:42:23.043Z,42.20
2018-04-16T03:43:20.564Z,40.80
2018-04-16T03:44:22.239Z,40.00
2018-04-16T03:45:21.435Z,39.20
2018-04-16T03:46:25.885Z,40.30
2018-04-16T03:47:24.450Z,40.10
2018-04-16T03:48:22.993Z,40.20
2018-04-16T03:49:23.894Z,40.30
2018-04-16T03:50:25.179Z,39.50
2018-04-16T03:51:23.519Z,41.20
2018-04-16T03:52:22.921Z,40.50
2018-04-16T03:53:23.701Z,40.10
2018-04-16T03:54:23.254Z,40.70
2018-04-16T03:55:23.107Z,41.30
2018-04-16T03:56:20.224Z,41.60
2018-04-16T03:57:20.713Z,42.50
2018-04-16T03:58:24.106Z,43.90
2018-04-16T03:59:21.291Z,41.70
2018-04-16T04:00:21.070Z,39.80
2018-04-16T04:01:20.360Z,39.60
2018-04-16T04:02:22.520Z,40.80
2018-04-16T04:03:21.885Z,40.50
2018-04-16T04:04:20.113Z,41.60
2018-04-16T04:05:21.386Z,42.40
2018-04-16T04:06:19.966Z,41.50
2018-04-16T04:07:21.564Z,40.10
2018-04-16T04:08:20.450Z,40.90
2018-04-16T04:09:21.758Z,39.10
2018-04-16T04:10:22.224Z,41.50
2018-04-16T04:11:21.463Z,42.50
2018-04-16T04:12:21.443Z,40.20
2018-04-16T04:13:22.075Z,39.90
2018-04-16T04:14:21.935Z,42.30
2018-04-16T04:15:19.943Z,40.10
2018-04-16T04:16:20.474Z,40.70
2018-04-16T04:17:20.503Z,41.40
2018-04-16T04:18:22.844Z,41.20
2018-04-16T04:19:21.085Z,42.50
2018-04-16T04:20:20.896Z,43.50
2018-04-16T04:21:22.588Z,41.60
2018-04-16T04:22:23.429Z,41.80
2018-04-16T04:23:20.846Z,41.30
2018-04-16T04:24:23.600Z,43.80
2018-04-16T04:25:20.881Z,40.60
2018-04-16T04:26:21.495Z,39.40
2018-04-16T04:27:19.923Z,40.50
2018-04-16T04:28:21.895Z,39.70
2018-04-16T04:29:20.505Z,39.70
2018-04-16T04:30:22.036Z,41.10
2018-04-16T04:31:21.999Z,41.00
2018-04-16T04:32:20.874Z,39.90
2018-04-16T04:33:21.041Z,40.80
2018-04-16T04:34:24.206Z,42.40
2018-04-16T04:35:21.293Z,43.50
2018-04-16T04:36:22.068Z,45.20
2018-04-16T04:37:20.499Z,42.10
2018-04-16T04:38:22.205Z,42.10
2018-04-16T04:39:20.494Z,41.00
2018-04-16T04:40:24.173Z,40.30
2018-04-16T04:41:20.695Z,39.10
2018-04-16T04:42:21.686Z,41.40
2018-04-16T04:43:20.914Z,39.20
2018-04-16T04:44:20.649Z,42.00
2018-04-16T04:45:22.973Z,40.30
2018-04-16T04:46:20.432Z,39.90
2018-04-16T04:47:20.299Z,39.10
2018-04-16T04:48:21.426Z,39.50
2018-04-16T04:49:21.357Z,42.30
2018-04-16T04:50:20.916Z,42.60
2018-04-16T04:51:21.643Z,41.90
2018-04-16T04:52:20.152Z,41.20
2018-04-16T04:53:20.795Z,41.60
2018-04-16T04:55:25.412Z,44.90
2018-04-16T04:56:23.093Z,43.40
2018-04-16T04:57:20.423Z,42.80
2018-04-16T04:58:21.239Z,46.00
2018-04-16T04:59:20.391Z,47.40
2018-04-16T05:00:21.073Z,45.50
2018-04-16T05:01:19.681Z,47.60
2018-04-16T05:02:22.092Z,47.00
2018-04-16T05:03:21.179Z,46.50
2018-04-16T05:04:19.333Z,50.00
2018-04-16T05:05:19.307Z,47.20
2018-04-16T05:06:19.429Z,47.00
2018-04-16T05:07:20.099Z,47.00
2018-04-16T05:08:19.352Z,44.70
2018-04-16T05:09:19.337Z,45.50
2018-04-16T05:10:20.917Z,46.30
2018-04-16T05:11:19.351Z,47.20
2018-04-16T05:12:19.600Z,46.80
2018-04-16T05:13:19.335Z,46.80
2018-04-16T05:14:19.379Z,46.10
2018-04-16T05:15:19.596Z,48.60
2018-04-16T05:16:19.382Z,46.80
2018-04-16T05:17:20.245Z,44.60
2018-04-16T05:18:22.340Z,44.20
2018-04-16T05:19:19.351Z,46.40
2018-04-16T05:20:19.502Z,45.30
2018-04-16T05:21:21.056Z,47.40
2018-04-16T05:23:21.483Z,46.10
2018-04-16T05:24:25.341Z,45.00
2018-04-16T05:25:20.754Z,44.60
2018-04-16T05:26:27.589Z,44.60
2018-04-16T05:27:20.527Z,44.20
2018-04-16T05:28:25.996Z,44.80
2018-04-16T05:29:19.380Z,43.40
2018-04-16T05:30:27.957Z,43.00
2018-04-16T05:31:19.389Z,42.30
2018-04-16T05:32:25.474Z,42.30
2018-04-16T05:33:19.407Z,43.90
2018-04-16T05:34:24.772Z,43.30
2018-04-16T05:35:19.446Z,41.50
2018-04-16T05:36:20.797Z,39.80
2018-04-16T05:37:19.663Z,39.30
2018-04-16T05:39:21.134Z,39.40
2018-04-16T05:40:25.250Z,34.80
2018-04-16T05:41:20.312Z,34.20
2018-04-16T05:42:19.621Z,32.20
2018-04-16T05:43:19.470Z,30.50
2018-04-16T05:45:19.410Z,27.00
2018-04-16T05:46:23.980Z,27.40
2018-04-16T05:47:24.065Z,25.50
2018-04-16T05:48:21.060Z,24.40
2018-04-16T05:49:19.518Z,23.70
2018-04-16T05:50:25.721Z,23.60
2018-04-16T05:51:24.606Z,25.40
2018-04-16T05:52:27.816Z,22.10
2018-04-16T05:54:42.119Z,23.10
2018-04-16T05:55:29.016Z,22.30
2018-04-16T05:58:02.671Z,20.00
2018-04-16T05:58:27.516Z,19.40
2018-04-16T05:59:32.434Z,20.90
2018-04-16T06:00:35.275Z,18.50
2018-04-16T06:03:31.042Z,17.30
2018-04-16T06:05:26.222Z,17.70
2018-04-16T06:06:32.609Z,17.50
2018-04-16T06:07:20.181Z,16.70
2018-04-16T06:08:26.909Z,16.90
2018-04-16T06:10:22.543Z,16.60
2018-04-16T06:11:23.078Z,17.20
2018-04-16T06:12:27.754Z,16.80
2018-04-16T06:13:28.515Z,15.30
2018-04-16T06:14:26.474Z,15.00
2018-04-16T06:15:24.071Z,16.40
2018-04-16T06:20:23.053Z,16.10
2018-04-16T06:21:20.345Z,17.30
2018-04-16T06:25:51.811Z,17.80
2018-04-16T06:26:52.613Z,16.10
2018-04-16T06:27:51.798Z,17.20
2018-04-16T06:28:51.777Z,17.50
2018-04-16T06:29:53.623Z,17.10
2018-04-16T06:30:51.783Z,17.10
2018-04-16T06:31:52.622Z,16.50
2018-04-16T06:32:52.619Z,17.20
2018-04-16T06:33:51.815Z,17.70
2018-04-16T06:34:51.931Z,18.70
2018-04-16T06:35:51.822Z,18.30
2018-04-16T06:36:51.849Z,20.10
2018-04-16T06:37:51.858Z,19.60
2018-04-16T06:38:51.844Z,20.10
2018-04-16T06:39:51.848Z,20.10
2018-04-16T06:40:51.860Z,20.40
2018-04-16T06:41:51.869Z,20.90
2018-04-16T06:42:51.947Z,20.80
2018-04-16T06:43:51.865Z,21.20
2018-04-16T06:44:51.856Z,20.70
2018-04-16T06:45:51.876Z,20.00
2018-04-16T06:46:51.928Z,19.20
2018-04-16T06:47:51.947Z,19.40
2018-04-16T06:48:51.888Z,19.60
2018-04-16T06:49:51.898Z,19.90
2018-04-16T06:50:51.909Z,20.10
2018-04-16T06:51:51.924Z,19.00
2018-04-16T06:52:51.920Z,19.90
2018-04-16T06:53:51.930Z,20.30
2018-04-16T06:54:51.931Z,19.40
2018-04-16T06:55:51.951Z,19.80
2018-04-16T06:56:51.941Z,19.70
2018-04-16T06:57:52.633Z,21.40
2018-04-16T06:58:51.973Z,21.20
2018-04-16T06:59:51.980Z,21.20
2018-04-16T07:00:52.097Z,21.50
2018-04-16T07:01:52.004Z,21.10
2018-04-16T07:02:51.995Z,21.70
2018-04-16T07:03:52.004Z,20.70
2018-04-16T07:04:52.023Z,23.20
2018-04-16T07:05:52.006Z,21.70
2018-04-16T07:06:52.020Z,22.80
2018-04-16T07:07:52.024Z,23.50
2018-04-16T07:08:52.051Z,22.20
2018-04-16T07:09:52.058Z,23.40
2018-04-16T07:10:52.050Z,24.10
2018-04-16T07:11:52.098Z,24.50
2018-04-16T07:12:52.717Z,23.70
2018-04-16T07:13:52.140Z,23.10
2018-04-16T07:14:52.116Z,23.80
2018-04-16T07:15:52.160Z,24.70
2018-04-16T07:16:52.129Z,24.30
2018-04-16T07:17:52.118Z,24.20
2018-04-16T07:18:52.106Z,25.00
2018-04-16T07:19:52.115Z,24.80
2018-04-16T07:20:52.214Z,25.40
2018-04-16T07:21:52.130Z,24.80
2018-04-16T07:22:52.151Z,24.40
2018-04-16T07:23:52.166Z,26.10
2018-04-16T07:24:52.165Z,24.80
2018-04-16T07:25:52.344Z,24.50
2018-04-16T07:26:52.175Z,24.10
2018-04-16T07:27:52.276Z,23.30
2018-04-16T07:28:52.289Z,24.60
2018-04-16T07:29:52.200Z,24.70
2018-04-16T07:30:52.206Z,24.30
2018-04-16T07:31:52.235Z,22.60
2018-04-16T07:32:52.219Z,21.50
2018-04-16T07:33:52.214Z,22.80
2018-04-16T07:34:52.231Z,23.00
2018-04-16T07:35:52.330Z,24.90
2018-04-16T07:36:52.250Z,24.60
2018-04-16T07:37:52.238Z,24.00
2018-04-16T07:38:52.248Z,24.60
2018-04-16T07:39:52.249Z,24.40
2018-04-16T07:40:52.261Z,23.50
2018-04-16T07:41:52.294Z,23.40
2018-04-16T07:42:52.264Z,24.20
2018-04-16T07:43:52.304Z,22.50
2018-04-16T07:44:52.298Z,22.40
2018-04-16T07:45:52.313Z,23.10
2018-04-16T07:46:53.160Z,24.00
2018-04-16T07:47:52.358Z,22.80
2018-04-16T07:48:52.404Z,23.10
2018-04-16T07:49:52.337Z,24.60
2018-04-16T07:50:52.367Z,22.10
2018-04-16T07:51:52.329Z,23.50
2018-04-16T07:52:52.359Z,21.90
2018-04-16T07:53:52.468Z,22.10
2018-04-16T07:54:52.521Z,22.70
2018-04-16T07:55:52.416Z,22.10
2018-04-16T07:56:53.166Z,22.20
2018-04-16T07:57:53.395Z,23.70
2018-04-16T07:58:52.531Z,23.70
2018-04-16T07:59:52.429Z,22.70
2018-04-16T08:00:52.638Z,21.60
2018-04-16T08:01:52.412Z,23.10
2018-04-16T08:02:52.447Z,21.80
2018-04-16T08:03:52.522Z,21.20
2018-04-16T08:04:52.534Z,20.80
2018-04-16T08:05:52.509Z,21.00
2018-04-16T08:06:52.529Z,21.30
2018-04-16T08:07:52.476Z,21.30
2018-04-16T08:08:52.546Z,20.50
2018-04-16T08:09:52.663Z,21.10
2018-04-16T08:10:52.518Z,20.50
2018-04-16T08:11:52.515Z,20.10
2018-04-16T08:12:52.556Z,19.30
2018-04-16T08:13:52.604Z,20.20
2018-04-16T08:14:52.569Z,19.80
2018-04-16T08:15:52.596Z,21.50
2018-04-16T08:16:52.590Z,21.70
2018-04-16T08:17:52.614Z,19.80
2018-04-16T08:18:52.710Z,20.00
2018-04-16T08:19:52.785Z,20.50
2018-04-16T08:20:52.646Z,19.90
2018-04-16T08:21:52.666Z,19.90
2018-04-16T08:22:52.652Z,19.50
2018-04-16T08:23:52.661Z,18.20
2018-04-16T08:24:52.729Z,16.70
2018-04-16T08:25:52.762Z,18.40
2018-04-16T08:26:52.707Z,19.00
2018-04-16T08:27:52.763Z,17.60
2018-04-16T08:28:52.705Z,19.30
2018-04-16T08:29:52.731Z,21.30
2018-04-16T08:30:52.756Z,21.20
2018-04-16T08:31:53.262Z,21.20
2018-04-16T08:32:52.771Z,21.50
2018-04-16T08:33:52.786Z,20.80
2018-04-16T08:34:54.291Z,21.80
2018-04-16T08:35:52.809Z,20.70
2018-04-16T08:36:53.206Z,21.50
2018-04-16T08:37:52.871Z,22.40
2018-04-16T08:38:54.435Z,21.90
2018-04-16T08:39:52.858Z,22.10
2018-04-16T08:40:53.456Z,21.00
2018-04-16T08:41:52.893Z,22.10
2018-04-16T08:42:53.301Z,21.10
2018-04-16T08:43:52.961Z,21.30
2018-04-16T08:44:52.959Z,19.20
2018-04-16T08:45:53.201Z,19.60
2018-04-16T08:46:53.078Z,21.60
2018-04-16T08:47:55.802Z,20.60
2018-04-16T08:48:52.987Z,22.20
2018-04-16T08:49:53.670Z,21.70
2018-04-16T08:50:53.085Z,22.70
2018-04-16T08:51:53.337Z,21.10
2018-04-16T08:52:54.497Z,22.00
2018-04-16T08:54:53.023Z,21.10
2018-04-16T08:55:53.067Z,21.60
2018-04-16T08:56:53.042Z,19.30
2018-04-16T08:57:53.215Z,18.70
2018-04-16T08:58:53.050Z,31.60
2018-04-16T08:59:53.062Z,18.90
2018-04-16T09:00:53.113Z,18.00
2018-04-16T09:01:53.508Z,18.20
2018-04-16T09:02:53.085Z,17.70
2018-04-16T09:03:53.120Z,17.20
2018-04-16T09:04:53.108Z,17.20
2018-04-16T09:05:53.117Z,17.10
2018-04-16T09:06:53.138Z,17.20
2018-04-16T09:07:53.151Z,16.90
2018-04-16T09:08:53.167Z,17.70
2018-04-16T09:09:53.175Z,17.40
2018-04-16T09:10:53.179Z,17.40
2018-04-16T09:11:53.203Z,17.60
2018-04-16T09:12:53.813Z,18.20
2018-04-16T09:13:53.202Z,19.20
2018-04-16T09:14:53.225Z,17.90
2018-04-16T09:15:53.784Z,17.40
2018-04-16T09:16:53.243Z,17.90
2018-04-16T09:17:53.232Z,16.90
2018-04-16T09:18:53.255Z,16.60
2018-04-16T09:19:53.260Z,16.40
2018-04-16T09:20:53.400Z,16.40
2018-04-16T09:21:53.282Z,16.50
2018-04-16T09:22:53.336Z,14.60
2018-04-16T09:23:53.342Z,14.70
2018-04-16T09:24:53.343Z,14.20
2018-04-16T09:25:53.408Z,13.00
2018-04-16T09:26:53.345Z,13.40
2018-04-16T09:27:53.344Z,12.70
2018-04-16T09:28:53.923Z,11.70
2018-04-16T09:29:53.400Z,11.60
2018-04-16T09:30:53.382Z,12.00
2018-04-16T09:31:53.485Z,12.10
2018-04-16T09:32:53.427Z,10.70
2018-04-16T09:33:54.322Z,11.10
2018-04-16T09:34:53.403Z,10.50
2018-04-16T09:35:53.410Z,11.40
2018-04-16T09:36:53.479Z,10.80
2018-04-16T09:37:53.476Z,10.40
2018-04-16T09:38:54.339Z,10.50
2018-04-16T09:39:53.462Z,10.50
2018-04-16T09:40:53.477Z,9.60
2018-04-16T09:41:54.321Z,9.70
2018-04-16T09:42:53.510Z,9.20
2018-04-16T09:43:53.520Z,9.70
2018-04-16T09:44:53.498Z,10.30
2018-04-16T09:45:53.511Z,10.30
2018-04-16T09:46:53.525Z,10.30
2018-04-16T09:47:53.540Z,10.10
2018-04-16T09:48:53.531Z,10.00
2018-04-16T09:49:53.546Z,9.80
2018-04-16T09:50:53.603Z,9.90
2018-04-16T09:51:53.576Z,9.20
2018-04-16T09:52:53.593Z,9.00
2018-04-16T09:53:53.594Z,8.80
2018-04-16T09:54:54.346Z,8.80
2018-04-16T09:55:53.627Z,8.20
2018-04-16T09:56:53.636Z,8.50
2018-04-16T09:57:53.677Z,9.00
2018-04-16T09:58:53.643Z,8.90
2018-04-16T09:59:53.687Z,9.50
2018-04-16T10:00:53.728Z,9.40
2018-04-16T10:01:53.672Z,9.10
2018-04-16T10:02:53.739Z,9.60
2018-04-16T10:03:53.797Z,8.70
2018-04-16T10:04:53.737Z,8.60
2018-04-16T10:05:53.717Z,9.20
2018-04-16T10:06:54.338Z,9.00
2018-04-16T10:07:53.736Z,8.40
2018-04-16T10:08:53.764Z,8.10
2018-04-16T10:09:53.875Z,8.30
2018-04-16T10:10:53.809Z,8.30
2018-04-16T10:11:53.799Z,7.90
2018-04-16T10:12:53.869Z,7.40
2018-04-16T10:13:53.824Z,7.50
2018-04-16T10:14:53.815Z,8.10
2018-04-16T10:15:53.832Z,6.90
2018-04-16T10:16:53.872Z,7.30
2018-04-16T10:17:53.875Z,7.60
2018-04-16T10:18:53.915Z,7.20
2018-04-16T10:19:53.956Z,7.10
2018-04-16T10:20:53.941Z,6.90
2018-04-16T10:21:53.954Z,6.40
2018-04-16T10:22:54.684Z,6.60
2018-04-16T10:23:53.986Z,7.20
2018-04-16T10:24:53.973Z,8.00
2018-04-16T10:25:54.053Z,7.70
2018-04-16T10:26:55.364Z,7.30
2018-04-16T10:27:54.031Z,7.50
2018-04-16T10:28:54.097Z,7.10
2018-04-16T10:29:54.076Z,7.20
2018-04-16T10:30:54.256Z,7.30
2018-04-16T10:31:54.085Z,7.40
2018-04-16T10:32:54.117Z,7.20
2018-04-16T10:33:54.154Z,6.70
2018-04-16T10:34:54.161Z,7.30
2018-04-16T10:35:54.167Z,7.40
2018-04-16T10:36:54.169Z,6.90
2018-04-16T10:37:54.245Z,7.60
2018-04-16T10:38:54.200Z,6.70
2018-04-16T10:39:54.255Z,7.20
2018-04-16T10:40:54.235Z,6.70
2018-04-16T10:41:54.864Z,7.30
2018-04-16T10:42:54.454Z,7.00
2018-04-16T10:43:54.268Z,6.80
2018-04-16T10:44:54.310Z,7.30
2018-04-16T10:45:54.333Z,7.60
2018-04-16T10:46:54.351Z,7.50
2018-04-16T10:47:54.370Z,7.00
2018-04-16T10:48:54.355Z,6.70
2018-04-16T10:49:54.370Z,6.40
2018-04-16T10:50:54.395Z,6.70
2018-04-16T10:51:54.428Z,6.00
2018-04-16T10:52:54.419Z,6.20
2018-04-16T10:53:54.467Z,6.10
2018-04-16T10:54:54.450Z,6.70
2018-04-16T10:55:54.464Z,7.30
2018-04-16T10:56:54.509Z,7.40
2018-04-16T10:57:54.709Z,7.80
2018-04-16T10:58:54.527Z,8.40
2018-04-16T10:59:54.521Z,8.50
2018-04-16T11:00:54.609Z,7.90
2018-04-16T11:01:54.685Z,8.00
2018-04-16T11:02:54.574Z,9.00
2018-04-16T11:03:54.595Z,9.00
2018-04-16T11:04:54.589Z,8.70
2018-04-16T11:05:54.601Z,10.10
2018-04-16T11:06:54.613Z,9.10
2018-04-16T11:07:54.628Z,8.90
2018-04-16T11:08:54.644Z,9.10
2018-04-16T11:09:54.644Z,9.10
2018-04-16T11:10:54.737Z,9.80
2018-04-16T11:11:55.378Z,9.80
2018-04-16T11:12:54.787Z,10.40
2018-04-16T11:13:54.729Z,10.50
2018-04-16T11:14:54.717Z,9.70
2018-04-16T11:15:54.730Z,10.40
2018-04-16T11:16:54.745Z,9.70
2018-04-16T11:17:54.761Z,9.20
2018-04-16T11:18:54.796Z,9.40
2018-04-16T11:19:54.867Z,10.70
2018-04-16T11:20:54.826Z,9.90
2018-04-16T11:21:55.409Z,9.90
2018-04-16T11:22:54.809Z,10.30
2018-04-16T11:23:54.815Z,10.40
2018-04-16T11:24:54.837Z,11.40
2018-04-16T11:25:54.819Z,11.60
2018-04-16T11:26:54.858Z,11.60
2018-04-16T11:27:54.835Z,11.70
2018-04-16T11:28:54.866Z,11.70
2018-04-16T11:29:54.857Z,11.50
2018-04-16T11:30:54.879Z,11.70
2018-04-16T11:31:54.896Z,12.20
2018-04-16T11:32:55.084Z,12.70
2018-04-16T11:33:55.054Z,14.80
2018-04-16T11:34:54.907Z,13.60
2018-04-16T11:35:54.908Z,12.50
2018-04-16T11:36:54.917Z,12.90
2018-04-16T11:37:55.023Z,13.50
2018-04-16T11:38:54.924Z,12.40
2018-04-16T11:39:55.015Z,13.90
2018-04-16T11:40:55.897Z,13.70
2018-04-16T11:41:54.975Z,13.80
2018-04-16T11:42:55.896Z,13.50
2018-04-16T11:43:55.025Z,14.10
2018-04-16T11:44:55.910Z,13.40
2018-04-16T11:45:55.069Z,13.80
2018-04-16T11:46:55.002Z,14.30
2018-04-16T11:47:55.035Z,14.70
2018-04-16T11:48:55.064Z,15.90
2018-04-16T11:49:55.051Z,15.30
2018-04-16T11:50:55.904Z,15.40
2018-04-16T11:51:55.035Z,15.40
2018-04-16T11:52:55.063Z,14.80
2018-04-16T11:53:55.060Z,13.80
2018-04-16T11:54:55.075Z,14.00
2018-04-16T11:55:55.107Z,13.90
2018-04-16T11:56:55.096Z,13.00
2018-04-16T11:57:55.090Z,14.30
2018-04-16T11:58:55.099Z,13.70
2018-04-16T11:59:55.133Z,13.30
2018-04-16T12:00:55.299Z,13.20
2018-04-16T12:01:55.171Z,13.40
2018-04-16T12:02:55.150Z,14.60
2018-04-16T12:03:55.140Z,14.90
2018-04-16T12:04:55.135Z,14.40
2018-04-16T12:05:55.170Z,19.20
2018-04-16T12:06:55.164Z,16.80
2018-04-16T12:07:55.229Z,16.20
2018-04-16T12:08:55.193Z,16.50
2018-04-16T12:09:55.229Z,16.20
2018-04-16T12:10:55.294Z,16.10
2018-04-16T12:11:55.228Z,16.20
2018-04-16T12:12:55.217Z,16.50
2018-04-16T12:13:55.231Z,16.20
2018-04-16T12:14:55.241Z,16.20
2018-04-16T12:15:55.238Z,16.00
2018-04-16T12:16:55.222Z,15.40
2018-04-16T12:17:55.238Z,15.10
2018-04-16T12:18:55.250Z,14.80
2018-04-16T12:19:55.254Z,14.50
2018-04-16T12:20:55.319Z,14.70
2018-04-16T12:21:55.335Z,14.00
2018-04-16T12:22:55.274Z,15.50
2018-04-16T12:23:55.359Z,14.40
2018-04-16T12:24:55.323Z,13.00
2018-04-16T12:25:55.301Z,13.20
2018-04-16T12:26:55.373Z,13.00
2018-04-16T12:27:55.310Z,13.30
2018-04-16T12:28:55.313Z,13.10
2018-04-16T12:29:55.365Z,13.60
2018-04-16T12:30:55.333Z,13.50
2018-04-16T12:31:55.378Z,13.70
2018-04-16T12:32:55.335Z,13.20
2018-04-16T12:33:55.461Z,12.80
2018-04-16T12:34:55.362Z,12.70
2018-04-16T12:35:55.383Z,12.40
2018-04-16T12:36:55.369Z,10.70
2018-04-16T12:37:55.442Z,11.90
2018-04-16T12:38:55.927Z,11.80
2018-04-16T12:39:55.382Z,11.00
2018-04-16T12:40:55.393Z,10.80
2018-04-16T12:41:55.442Z,10.60
2018-04-16T12:42:55.432Z,12.00
2018-04-16T12:43:55.936Z,13.40
2018-04-16T12:44:55.444Z,12.90
2018-04-16T12:45:55.425Z,12.20
2018-04-16T12:46:55.537Z,11.60
2018-04-16T12:47:55.442Z,12.90
2018-04-16T12:48:55.483Z,11.90
2018-04-16T12:49:55.483Z,11.60
2018-04-16T12:50:55.507Z,11.40
2018-04-16T12:51:55.482Z,10.70
2018-04-16T12:52:55.522Z,9.20
2018-04-16T12:53:55.482Z,9.60
2018-04-16T12:54:55.503Z,11.00
2018-04-16T12:55:55.505Z,11.90
2018-04-16T12:56:55.594Z,12.50
2018-04-16T12:57:55.540Z,11.60
2018-04-16T12:58:55.515Z,10.20
2018-04-16T12:59:55.525Z,11.50
2018-04-16T13:00:55.567Z,10.00
2018-04-16T13:01:55.595Z,11.30
2018-04-16T13:02:55.540Z,10.60
2018-04-16T13:03:55.582Z,12.20
2018-04-16T13:04:55.563Z,12.70
2018-04-16T13:05:55.562Z,13.60
2018-04-16T13:06:55.597Z,12.90
2018-04-16T13:07:55.599Z,13.40
2018-04-16T13:08:55.583Z,14.20
2018-04-16T13:09:56.438Z,13.80
2018-04-16T13:10:55.641Z,13.60
2018-04-16T13:11:55.660Z,14.60
2018-04-16T13:12:55.632Z,38.30
2018-04-16T13:13:55.621Z,19.40
2018-04-16T13:14:55.626Z,15.20
2018-04-16T13:15:55.625Z,14.60
2018-04-16T13:16:55.672Z,13.10
2018-04-16T13:17:55.692Z,11.40
2018-04-16T13:18:55.664Z,10.60
2018-04-16T13:19:55.661Z,10.30
2018-04-16T13:20:55.656Z,9.30